createdAt,value
2018-01-26T00:00:01.528Z,7.17
2018-01-26T00:02:29.058Z,7.40
2018-01-26T00:04:56.613Z,6.73
2018-01-26T00:07:24.185Z,6.13
2018-01-26T00:09:52.494Z,6.50
2018-01-26T00:12:20.019Z,6.03
2018-01-26T00:14:47.545Z,6.67
2018-01-26T00:17:15.841Z,7.00
2018-01-26T00:19:43.473Z,6.27
2018-01-26T00:22:10.993Z,6.40
2018-01-26T00:24:39.284Z,6.57
2018-01-26T00:27:06.814Z,7.50
2018-01-26T00:29:34.336Z,5.80
2018-01-26T00:32:01.921Z,5.60
2018-01-26T00:34:29.426Z,6.03
2018-01-26T00:36:57.716Z,6.00
2018-01-26T00:39:25.294Z,6.50
2018-01-26T00:41:52.812Z,5.50
2018-01-26T00:44:20.340Z,5.30
2018-01-26T00:46:47.882Z,6.17
2018-01-26T00:49:16.221Z,6.00
2018-01-26T00:51:43.867Z,5.13
2018-01-26T00:54:13.282Z,5.07
2018-01-26T00:56:41.604Z,4.80
2018-01-26T00:59:09.281Z,4.57
2018-01-26T01:01:37.571Z,4.53
2018-01-26T01:04:05.089Z,4.80
2018-01-26T01:06:33.545Z,4.87
2018-01-26T01:09:01.073Z,4.23
2018-01-26T01:11:28.612Z,5.60
2018-01-26T01:13:56.266Z,4.90
2018-01-26T01:16:23.794Z,4.83
2018-01-26T01:18:51.348Z,4.77
2018-01-26T01:21:18.911Z,4.77
2018-01-26T01:23:47.221Z,4.20
2018-01-26T01:26:14.781Z,4.90
2018-01-26T01:28:42.317Z,4.50
2018-01-26T01:31:09.833Z,4.20
2018-01-26T01:33:38.150Z,4.63
2018-01-26T01:36:06.462Z,4.73
2018-01-26T01:38:33.981Z,4.97
2018-01-26T01:41:01.492Z,4.20
2018-01-26T01:43:29.789Z,4.70
2018-01-26T01:45:57.311Z,4.40
2018-01-26T01:48:24.814Z,5.70
2018-01-26T01:50:52.667Z,4.83
2018-01-26T01:53:21.365Z,5.10
2018-01-26T01:55:48.892Z,5.10
2018-01-26T01:58:16.540Z,5.20
2018-01-26T02:00:44.073Z,6.07
2018-01-26T02:03:11.610Z,5.37
2018-01-26T02:05:39.144Z,5.50
2018-01-26T02:08:06.661Z,4.50
2018-01-26T02:10:34.195Z,4.70
2018-01-26T02:13:01.949Z,4.90
2018-01-26T02:15:29.497Z,5.17
2018-01-26T02:17:57.794Z,4.80
2018-01-26T02:20:25.372Z,5.20
2018-01-26T02:22:53.673Z,5.37
2018-01-26T02:25:21.320Z,5.03
2018-01-26T02:27:48.825Z,5.00
2018-01-26T02:30:16.506Z,4.87
2018-01-26T02:32:44.857Z,5.20
2018-01-26T02:35:12.399Z,4.97
2018-01-26T02:37:39.950Z,4.50
2018-01-26T02:40:08.249Z,4.83
2018-01-26T02:42:35.816Z,5.20
2018-01-26T02:45:04.120Z,4.73
2018-01-26T02:47:31.663Z,5.03
2018-01-26T02:50:00.754Z,5.10
2018-01-26T02:52:28.270Z,5.20
2018-01-26T02:54:55.783Z,4.27
2018-01-26T02:57:23.321Z,4.27
2018-01-26T02:59:51.621Z,4.80
2018-01-26T03:02:19.130Z,4.57
2018-01-26T03:04:47.545Z,4.57
2018-01-26T03:07:15.062Z,4.30
2018-01-26T03:09:42.593Z,4.90
2018-01-26T03:12:10.125Z,4.37
2018-01-26T03:14:37.676Z,4.87
2018-01-26T03:17:05.286Z,4.73
2018-01-26T03:19:33.574Z,4.27
2018-01-26T03:22:01.096Z,3.83
2018-01-26T03:24:28.738Z,4.50
2018-01-26T03:26:56.246Z,4.00
2018-01-26T03:29:24.556Z,4.40
2018-01-26T03:31:52.099Z,4.20
2018-01-26T03:34:19.625Z,4.37
2018-01-26T03:36:47.173Z,4.10
2018-01-26T03:39:14.723Z,4.23
2018-01-26T03:41:43.009Z,4.53
2018-01-26T03:44:10.531Z,5.07
2018-01-26T03:46:38.083Z,4.50
2018-01-26T03:49:05.678Z,3.93
2018-01-26T03:51:33.337Z,4.83
2018-01-26T03:54:00.917Z,4.70
2018-01-26T03:56:29.227Z,3.80
2018-01-26T03:58:57.527Z,4.30
2018-01-26T04:01:25.165Z,3.30
2018-01-26T04:03:53.467Z,4.10
2018-01-26T04:06:21.058Z,3.73
2018-01-26T04:08:48.603Z,4.40
2018-01-26T04:11:16.152Z,4.10
2018-01-26T04:13:44.453Z,3.83
2018-01-26T04:16:11.971Z,3.67
2018-01-26T04:18:39.525Z,3.80
2018-01-26T04:21:07.055Z,3.70
2018-01-26T04:23:34.584Z,3.43
2018-01-26T04:26:03.794Z,3.70
2018-01-26T04:28:32.462Z,3.80
2018-01-26T04:31:00.033Z,3.90
2018-01-26T04:33:27.546Z,3.70
2018-01-26T04:35:55.850Z,5.40
2018-01-26T04:38:23.376Z,3.80
2018-01-26T04:40:50.895Z,2.90
2018-01-26T04:43:18.454Z,2.93
2018-01-26T04:45:46.782Z,3.70
2018-01-26T04:48:15.071Z,3.63
2018-01-26T04:50:43.373Z,3.30
2018-01-26T04:53:11.688Z,3.00
2018-01-26T04:55:39.203Z,3.80
2018-01-26T04:58:06.726Z,3.50
2018-01-26T05:00:34.381Z,3.70
2018-01-26T05:03:02.700Z,4.10
2018-01-26T05:05:30.979Z,4.50
2018-01-26T05:07:58.554Z,4.50
2018-01-26T05:10:26.090Z,3.07
2018-01-26T05:12:54.375Z,3.87
2018-01-26T05:15:21.927Z,5.83
2018-01-26T05:17:49.461Z,4.97
2018-01-26T05:20:17.042Z,4.50
2018-01-26T05:22:44.589Z,5.13
2018-01-26T05:25:13.000Z,4.20
2018-01-26T05:27:40.573Z,4.30
2018-01-26T05:30:08.869Z,3.77
2018-01-26T05:32:37.187Z,3.90
2018-01-26T05:35:04.710Z,4.07
2018-01-26T05:37:32.439Z,5.43
2018-01-26T05:39:59.965Z,5.17
2018-01-26T05:42:27.491Z,3.87
2018-01-26T05:44:55.629Z,4.90
2018-01-26T05:47:23.160Z,6.00
2018-01-26T05:49:52.242Z,4.70
2018-01-26T05:52:19.788Z,5.47
2018-01-26T05:54:47.297Z,5.37
2018-01-26T05:57:14.913Z,5.57
2018-01-26T05:59:43.230Z,5.03
2018-01-26T06:02:10.767Z,6.00
2018-01-26T06:04:38.335Z,4.90
2018-01-26T06:07:05.886Z,6.53
2018-01-26T06:09:33.655Z,4.10
2018-01-26T06:12:01.200Z,4.70
2018-01-26T06:14:29.516Z,5.50
2018-01-26T06:16:57.129Z,5.80
2018-01-26T06:19:24.665Z,6.00
2018-01-26T06:21:52.201Z,6.10
2018-01-26T06:24:19.745Z,6.03
2018-01-26T06:26:48.042Z,6.33
2018-01-26T06:29:15.702Z,6.87
2018-01-26T06:31:43.246Z,7.50
2018-01-26T06:34:10.791Z,7.40
2018-01-26T06:36:39.100Z,4.90
2018-01-26T06:39:06.673Z,5.10
2018-01-26T06:41:35.077Z,4.50
2018-01-26T06:44:02.716Z,4.57
2018-01-26T06:46:30.233Z,4.90
2018-01-26T06:48:57.765Z,4.97
2018-01-26T06:51:25.493Z,4.53
2018-01-26T06:53:53.051Z,4.50
2018-01-26T06:56:20.637Z,5.27
2018-01-26T06:58:48.152Z,4.20
2018-01-26T07:01:16.636Z,4.37
2018-01-26T07:03:44.187Z,4.50
2018-01-26T07:06:12.501Z,5.40
2018-01-26T07:08:40.025Z,4.60
2018-01-26T07:11:07.542Z,5.03
2018-01-26T07:13:35.127Z,5.40
2018-01-26T07:16:03.664Z,5.03
2018-01-26T07:18:31.235Z,4.30
2018-01-26T07:20:58.837Z,4.77
2018-01-26T07:23:27.149Z,4.33
2018-01-26T07:25:54.753Z,4.50
2018-01-26T07:28:22.312Z,4.97
2018-01-26T07:30:49.830Z,4.37
2018-01-26T07:33:17.659Z,4.37
2018-01-26T07:35:45.252Z,4.47
2018-01-26T07:38:12.795Z,4.40
2018-01-26T07:40:40.309Z,3.83
2018-01-26T07:43:07.944Z,5.53
2018-01-26T07:45:35.470Z,4.47
2018-01-26T07:48:03.189Z,5.20
2018-01-26T07:50:30.784Z,4.50
2018-01-26T07:52:58.321Z,4.53
2018-01-26T07:55:26.861Z,5.20
2018-01-26T07:57:55.503Z,4.97
2018-01-26T08:00:23.036Z,4.73
2018-01-26T08:02:51.379Z,6.87
2018-01-26T08:05:18.905Z,5.27
2018-01-26T08:07:46.444Z,5.13
2018-01-26T08:10:14.013Z,5.60
2018-01-26T08:12:41.540Z,5.30
2018-01-26T08:15:09.809Z,5.00
2018-01-26T08:17:37.377Z,6.20
2018-01-26T08:20:05.690Z,5.13
2018-01-26T08:22:34.277Z,5.60
2018-01-26T08:25:01.811Z,5.77
2018-01-26T08:27:29.393Z,5.27
2018-01-26T08:29:57.716Z,5.47
2018-01-26T08:32:25.482Z,5.13
2018-01-26T08:34:53.125Z,6.90
2018-01-26T08:37:20.686Z,5.00
2018-01-26T08:39:48.288Z,6.07
2018-01-26T08:42:15.920Z,5.73
2018-01-26T08:44:43.447Z,6.23
2018-01-26T08:47:10.990Z,5.47
2018-01-26T08:49:38.513Z,6.13
2018-01-26T08:52:06.080Z,7.00
2018-01-26T08:54:33.977Z,6.30
2018-01-26T08:57:01.516Z,7.33
2018-01-26T08:59:29.070Z,7.77
2018-01-26T09:01:56.616Z,7.57
2018-01-26T09:04:24.920Z,7.67
2018-01-26T09:06:52.550Z,7.70
2018-01-26T09:09:20.072Z,7.57
2018-01-26T09:11:47.623Z,7.47
2018-01-26T09:14:16.309Z,8.77
2018-01-26T09:16:44.113Z,9.70
2018-01-26T09:19:11.646Z,7.50
2018-01-26T09:21:39.209Z,9.80
2018-01-26T09:24:07.513Z,8.40
2018-01-26T09:26:35.047Z,7.53
2018-01-26T09:29:03.596Z,8.70
2018-01-26T09:31:31.181Z,12.50
2018-01-26T09:33:58.693Z,8.17
2018-01-26T09:36:26.261Z,8.10
2018-01-26T09:38:53.993Z,7.80
2018-01-26T09:41:21.540Z,8.33
2018-01-26T09:43:49.839Z,7.97
2018-01-26T09:46:17.465Z,8.03
2018-01-26T09:48:45.791Z,8.97
2018-01-26T09:51:14.313Z,7.63
2018-01-26T09:53:41.869Z,7.57
2018-01-26T09:56:10.611Z,7.50
2018-01-26T09:58:38.332Z,7.40
2018-01-26T10:01:05.969Z,8.13
2018-01-26T10:03:33.757Z,8.13
2018-01-26T10:06:02.206Z,7.50
2018-01-26T10:08:29.755Z,7.40
2018-01-26T10:10:57.498Z,9.67
2018-01-26T10:13:25.027Z,10.03
2018-01-26T10:15:52.557Z,7.63
2018-01-26T10:18:21.911Z,6.47
2018-01-26T10:20:49.456Z,8.50
2018-01-26T10:23:17.020Z,6.70
2018-01-26T10:25:44.557Z,7.80
2018-01-26T10:28:12.241Z,6.43
2018-01-26T10:30:40.058Z,7.77
2018-01-26T10:33:08.518Z,7.33
2018-01-26T10:35:36.080Z,8.17
2018-01-26T10:38:03.900Z,8.20
2018-01-26T10:40:31.436Z,8.00
2018-01-26T10:43:00.469Z,7.90
2018-01-26T10:45:28.062Z,7.37
2018-01-26T10:47:55.629Z,8.27
2018-01-26T10:50:23.942Z,7.80
2018-01-26T10:52:51.535Z,8.20
2018-01-26T10:55:19.894Z,7.90
2018-01-26T10:57:47.402Z,8.07
2018-01-26T11:00:14.980Z,9.10
2018-01-26T11:02:42.561Z,10.10
2018-01-26T11:05:10.101Z,9.73
2018-01-26T11:07:37.686Z,9.10
2018-01-26T11:10:05.250Z,10.47
2018-01-26T11:12:33.044Z,10.40
2018-01-26T11:15:00.654Z,11.20
2018-01-26T11:17:28.181Z,10.77
2018-01-26T11:19:56.550Z,11.83
2018-01-26T11:22:24.870Z,11.33
2018-01-26T11:24:52.433Z,12.43
2018-01-26T11:27:19.969Z,12.43
2018-01-26T11:29:47.527Z,12.57
2018-01-26T11:32:15.185Z,13.87
2018-01-26T11:34:42.765Z,13.60
2018-01-26T11:37:10.513Z,14.37
2018-01-26T11:39:38.153Z,13.47
2018-01-26T11:42:05.769Z,13.50
2018-01-26T11:44:33.308Z,13.67
2018-01-26T11:47:00.858Z,16.13
2018-01-26T11:49:28.552Z,16.00
2018-01-26T11:51:56.350Z,15.57
2018-01-26T11:54:23.909Z,15.70
2018-01-26T11:56:52.249Z,17.23
2018-01-26T11:59:19.815Z,15.50
2018-01-26T12:01:47.455Z,16.37
2018-01-26T12:04:15.183Z,15.70
2018-01-26T12:06:42.785Z,16.17
2018-01-26T12:09:10.583Z,15.50
2018-01-26T12:11:38.234Z,16.30
2018-01-26T12:14:06.122Z,17.33
2018-01-26T12:16:34.411Z,16.20
2018-01-26T12:19:02.236Z,18.10
2018-01-26T12:21:29.802Z,19.60
2018-01-26T12:23:58.204Z,18.40
2018-01-26T12:26:25.756Z,17.73
2018-01-26T12:28:54.048Z,18.40
2018-01-26T12:31:21.681Z,19.57
2018-01-26T12:33:50.104Z,19.57
2018-01-26T12:36:17.776Z,19.27
2018-01-26T12:38:45.347Z,17.33
2018-01-26T12:41:13.014Z,17.10
2018-01-26T12:43:40.721Z,18.13
2018-01-26T12:46:08.274Z,17.53
2018-01-26T12:48:35.833Z,18.93
2018-01-26T12:51:03.364Z,18.27
2018-01-26T12:53:30.928Z,18.63
2018-01-26T12:55:59.360Z,18.87
2018-01-26T12:58:26.873Z,18.43
2018-01-26T13:00:54.566Z,20.10
2018-01-26T13:03:22.303Z,20.57
2018-01-26T13:05:49.990Z,19.37
2018-01-26T13:08:17.636Z,20.93
2018-01-26T13:10:45.232Z,18.83
2018-01-26T13:13:13.076Z,18.23
2018-01-26T13:15:41.469Z,18.50
2018-01-26T13:18:09.069Z,18.63
2018-01-26T13:20:37.438Z,21.90
2018-01-26T13:23:05.766Z,20.83
2018-01-26T13:25:33.355Z,21.60
2018-01-26T13:28:00.881Z,21.83
2018-01-26T13:30:28.409Z,22.10
2018-01-26T13:32:57.830Z,22.10
2018-01-26T13:35:25.386Z,21.17
2018-01-26T13:37:53.104Z,19.70
2018-01-26T13:40:20.836Z,20.87
2018-01-26T13:42:48.387Z,21.10
2018-01-26T13:45:16.120Z,20.00
2018-01-26T13:47:44.551Z,19.20
2018-01-26T13:50:13.174Z,19.87
2018-01-26T13:52:41.538Z,20.33
2018-01-26T13:55:09.937Z,22.03
2018-01-26T13:57:38.363Z,21.03
2018-01-26T14:00:06.985Z,21.90
2018-01-26T14:02:35.462Z,19.93
2018-01-26T14:05:03.160Z,21.20
2018-01-26T14:07:30.679Z,19.90
2018-01-26T14:09:59.047Z,19.00
2018-01-26T14:12:26.618Z,20.23
2018-01-26T14:14:54.920Z,18.80
2018-01-26T14:17:22.460Z,20.30
2018-01-26T14:19:50.820Z,18.77
2018-01-26T14:22:18.390Z,17.93
2018-01-26T14:24:46.695Z,18.33
2018-01-26T14:27:14.330Z,15.97
2018-01-26T14:29:42.670Z,16.60
2018-01-26T14:32:10.325Z,16.17
2018-01-26T14:34:37.911Z,15.67
2018-01-26T14:37:05.484Z,14.20
2018-01-26T14:39:33.081Z,16.00
2018-01-26T14:42:00.623Z,16.30
2018-01-26T14:44:28.150Z,16.10
2018-01-26T14:46:56.506Z,17.27
2018-01-26T14:49:24.030Z,16.43
2018-01-26T14:51:51.641Z,16.37
2018-01-26T14:54:19.974Z,17.17
2018-01-26T14:56:47.542Z,16.57
2018-01-26T14:59:15.076Z,16.13
2018-01-26T15:01:42.626Z,16.90
2018-01-26T15:04:10.162Z,17.30
2018-01-26T15:06:38.685Z,16.70
2018-01-26T15:09:06.239Z,16.53
2018-01-26T15:11:33.792Z,16.87
2018-01-26T15:14:03.288Z,16.53
2018-01-26T15:16:30.820Z,17.50
2018-01-26T15:18:59.119Z,17.70
2018-01-26T15:21:26.711Z,17.70
2018-01-26T15:23:54.252Z,17.80
2018-01-26T15:26:21.865Z,19.40
2018-01-26T15:28:50.311Z,20.00
2018-01-26T15:31:18.089Z,19.50
2018-01-26T15:33:45.651Z,21.00
2018-01-26T15:36:13.987Z,19.83
2018-01-26T15:38:41.540Z,18.57
2018-01-26T15:41:09.134Z,18.13
2018-01-26T15:43:36.667Z,17.03
2018-01-26T15:46:04.227Z,18.47
2018-01-26T15:48:31.995Z,19.73
2018-01-26T15:50:59.551Z,19.80
2018-01-26T15:53:27.073Z,19.30
2018-01-26T15:55:54.677Z,19.00
2018-01-26T15:58:22.322Z,18.90
2018-01-26T16:00:50.979Z,19.80
2018-01-26T16:03:18.986Z,20.27
2018-01-26T16:05:47.488Z,20.70
2018-01-26T16:08:15.980Z,19.37
2018-01-26T16:10:43.845Z,20.83
2018-01-26T16:13:12.193Z,18.63
2018-01-26T16:15:41.396Z,19.67
2018-01-26T16:18:09.186Z,20.83
2018-01-26T16:20:36.814Z,20.67
2018-01-26T16:23:04.391Z,20.33
2018-01-26T16:25:31.983Z,19.50
2018-01-26T16:27:59.499Z,21.30
2018-01-26T16:30:27.020Z,20.40
2018-01-26T16:32:54.698Z,20.37
2018-01-26T16:35:22.278Z,20.57
2018-01-26T16:37:49.912Z,22.03
2018-01-26T16:40:17.693Z,20.87
2018-01-26T16:42:45.272Z,19.70
2018-01-26T16:45:13.570Z,21.47
2018-01-26T16:47:41.232Z,21.20
2018-01-26T16:50:08.783Z,20.80
2018-01-26T16:52:36.322Z,23.13
2018-01-26T16:55:03.889Z,22.20
2018-01-26T16:57:32.184Z,22.30
2018-01-26T16:59:59.812Z,21.53
2018-01-26T17:02:27.362Z,21.17
2018-01-26T17:04:54.972Z,21.83
2018-01-26T17:07:48.984Z,22.70
2018-01-26T17:10:16.547Z,21.97
2018-01-26T17:12:44.114Z,20.80
2018-01-26T17:15:11.640Z,23.57
2018-01-26T17:17:39.153Z,24.87
2018-01-26T17:20:07.488Z,24.30
2018-01-26T17:22:35.005Z,25.07
2018-01-26T17:25:02.582Z,24.13
2018-01-26T17:27:30.390Z,26.50
2018-01-26T17:29:57.954Z,26.50
2018-01-26T17:32:25.543Z,27.53
2018-01-26T17:34:53.092Z,26.90
2018-01-26T17:37:21.389Z,26.30
2018-01-26T17:39:48.967Z,26.97
2018-01-26T17:42:16.597Z,26.17
2018-01-26T17:44:44.427Z,26.57
2018-01-26T17:47:11.976Z,28.00
2018-01-26T17:49:39.664Z,28.20
2018-01-26T17:52:07.179Z,28.83
2018-01-26T17:54:34.729Z,28.70
2018-01-26T17:57:02.334Z,27.07
2018-01-26T17:59:30.724Z,30.30
2018-01-26T18:01:59.230Z,29.37
2018-01-26T18:04:27.575Z,28.90
2018-01-26T18:06:55.906Z,30.60
2018-01-26T18:09:23.443Z,28.30
2018-01-26T18:11:50.986Z,31.30
2018-01-26T18:14:19.446Z,31.10
2018-01-26T18:16:47.838Z,30.57
2018-01-26T18:19:15.470Z,30.60
2018-01-26T18:21:43.873Z,30.33
2018-01-26T18:24:11.416Z,30.70
2018-01-26T18:26:39.755Z,31.20
2018-01-26T18:29:07.342Z,31.00
2018-01-26T18:31:34.893Z,32.60
2018-01-26T18:34:02.440Z,32.67
2018-01-26T18:36:29.991Z,32.07
2018-01-26T18:39:02.685Z,30.17
2018-01-26T18:41:31.058Z,33.90
2018-01-26T18:43:58.602Z,30.40
2018-01-26T18:46:26.143Z,30.40
2018-01-26T18:48:53.781Z,31.70
2018-01-26T18:51:21.422Z,31.87
2018-01-26T18:53:49.716Z,34.10
2018-01-26T18:56:17.447Z,31.77
2018-01-26T18:58:45.013Z,33.50
2018-01-26T19:01:13.332Z,31.90
2018-01-26T19:03:40.883Z,31.97
2018-01-26T19:06:08.455Z,32.47
2018-01-26T19:08:36.164Z,32.97
2018-01-26T19:11:04.477Z,35.90
2018-01-26T19:13:32.044Z,31.20
2018-01-26T19:15:59.622Z,32.27
2018-01-26T19:18:27.218Z,32.53
2018-01-26T19:20:55.547Z,32.53
2018-01-26T19:23:23.112Z,30.37
2018-01-26T19:25:50.697Z,30.00
2018-01-26T19:28:18.420Z,32.77
2018-01-26T19:30:45.979Z,32.23
2018-01-26T19:33:13.509Z,31.00
2018-01-26T19:35:41.069Z,33.30
2018-01-26T19:38:08.714Z,32.73
2018-01-26T19:40:37.030Z,33.13
2018-01-26T19:43:04.579Z,32.33
2018-01-26T19:45:32.200Z,32.13
2018-01-26T19:48:00.534Z,31.47
2018-01-26T19:50:28.079Z,32.43
2018-01-26T19:52:55.663Z,31.97
2018-01-26T19:55:23.198Z,34.30
2018-01-26T19:57:50.722Z,33.80
2018-01-26T20:00:19.099Z,33.17
2018-01-26T20:02:47.409Z,33.97
2018-01-26T20:05:32.632Z,31.80
2018-01-26T20:08:00.939Z,32.63
2018-01-26T20:10:29.504Z,32.80
2018-01-26T20:13:02.754Z,32.87
2018-01-26T20:15:30.360Z,32.27
2018-01-26T20:17:57.879Z,34.43
2018-01-26T20:20:25.469Z,34.30
2018-01-26T20:25:18.343Z,32.77
2018-01-26T20:27:45.954Z,33.20
2018-01-26T20:30:13.620Z,32.80
2018-01-26T20:32:41.130Z,35.20
2018-01-26T20:35:08.721Z,33.90
2018-01-26T20:37:36.362Z,34.40
2018-01-26T20:40:03.910Z,34.93
2018-01-26T20:42:31.516Z,34.33
2018-01-26T20:44:59.256Z,32.97
2018-01-26T20:47:26.804Z,30.73
2018-01-26T20:49:54.362Z,32.70
2018-01-26T20:52:22.695Z,33.07
2018-01-26T20:54:50.251Z,30.70
2018-01-26T20:57:18.051Z,31.13
2018-01-26T20:59:45.752Z,33.47
2018-01-26T21:02:13.301Z,32.23
2018-01-26T21:04:41.649Z,32.43
2018-01-26T21:07:09.205Z,31.27
2018-01-26T21:09:36.737Z,31.10
2018-01-26T21:12:04.311Z,30.83
2018-01-26T21:14:31.858Z,32.20
2018-01-26T21:16:59.398Z,32.53
2018-01-26T21:19:27.023Z,31.80
2018-01-26T21:21:55.346Z,31.33
2018-01-26T21:24:22.866Z,31.10
2018-01-26T21:26:50.468Z,31.07
2018-01-26T21:29:18.798Z,31.70
2018-01-26T21:31:46.362Z,32.07
2018-01-26T21:34:14.726Z,32.83
2018-01-26T21:36:42.264Z,33.03
2018-01-26T21:39:09.806Z,32.20
2018-01-26T21:41:37.388Z,31.97
2018-01-26T21:44:04.941Z,32.97
2018-01-26T21:46:32.533Z,32.70
2018-01-26T21:49:00.119Z,31.33
2018-01-26T21:51:27.671Z,29.07
2018-01-26T21:53:55.254Z,30.33
2018-01-26T21:56:22.836Z,28.40
2018-01-26T21:58:51.146Z,30.13
2018-01-26T22:01:18.767Z,31.50
2018-01-26T22:03:46.364Z,29.10
2018-01-26T22:09:18.604Z,28.40
2018-01-26T22:11:46.134Z,28.30
2018-01-26T22:14:14.571Z,28.83
2018-01-26T22:16:42.157Z,28.60
2018-01-26T22:19:09.701Z,27.20
2018-01-26T22:21:37.990Z,26.60
2018-01-26T22:24:05.559Z,26.33
2018-01-26T22:26:33.169Z,25.93
2018-01-26T22:29:01.466Z,25.10
2018-01-26T22:31:29.002Z,25.60
2018-01-26T22:33:56.548Z,26.80
2018-01-26T22:36:24.349Z,24.47
2018-01-26T22:38:51.928Z,26.70
2018-01-26T22:41:19.466Z,26.30
2018-01-26T22:43:47.036Z,24.43
2018-01-26T22:46:14.692Z,26.93
2018-01-26T22:48:42.205Z,27.50
2018-01-26T22:51:09.710Z,26.63
2018-01-26T22:53:37.281Z,25.53
2018-01-26T22:56:04.807Z,23.53
2018-01-26T22:58:32.389Z,24.13
2018-01-26T23:01:00.720Z,23.10
2018-01-26T23:03:28.276Z,24.60
2018-01-26T23:05:55.817Z,25.37
2018-01-26T23:08:23.389Z,23.67
2018-01-26T23:10:51.668Z,24.50
2018-01-26T23:13:19.433Z,23.90
2018-01-26T23:15:47.145Z,25.40
2018-01-26T23:18:14.762Z,25.77
2018-01-26T23:20:43.070Z,24.63
2018-01-26T23:23:11.385Z,25.73
2018-01-26T23:25:39.689Z,23.53
2018-01-26T23:28:07.209Z,23.57
2018-01-26T23:30:34.770Z,22.40
2018-01-26T23:33:02.301Z,24.97
2018-01-26T23:35:30.595Z,25.23
2018-01-26T23:37:58.993Z,23.03
2018-01-26T23:40:27.287Z,22.80
2018-01-26T23:42:54.842Z,23.63
2018-01-26T23:45:22.404Z,23.60
2018-01-26T23:47:49.941Z,23.90
2018-01-26T23:50:17.610Z,22.90
2018-01-26T23:52:45.168Z,24.20
2018-01-26T23:55:12.703Z,23.27
2018-01-26T23:57:41.004Z,23.33
